Flight Track Log - Related Links

Times and Time Zones

All times are in EDT time to prevent confusion due to time zone crossing. See the N918FA flight status page for this flight to view local times or setup timezone preferences in your user account.

Time Position Orientation Groundspeed Altitude Reporting Facility
EDT Latitude Longitude Course Direction KTS MPH feet Rate Location/Type
Mon 08:40:54 PM 39.0000 -76.9333 322° Northwest 71 82 600  Level Potomac TRACON
Mon 08:41:54 PM 39.0167 -76.9500 322° Northwest 87 100 1,200 600 Climbing Potomac TRACON
Mon 08:42:54 PM 39.0500 -76.9333 21° North 90 104 1,800 600 Climbing Potomac TRACON
Mon 08:43:54 PM 39.0667 -76.9333 360° North 78 90 2,400 550 Climbing Potomac TRACON
Mon 08:44:54 PM 39.0833 -76.9500 322° Northwest 78 90 2,900 500 Climbing Potomac TRACON
Mon 08:45:54 PM 39.1000 -76.9500 360° North 78 90 3,400 500 Climbing Potomac TRACON
Mon 08:46:54 PM 39.1333 -76.9500 360° North 70 81 3,900 500 Climbing Potomac TRACON
Mon 08:47:54 PM 39.1500 -76.9500 360° North 69 79 4,400 500 Climbing Potomac TRACON
Mon 08:48:54 PM 39.1500 -76.9667 270° West 62 71 4,900 250 Climbing Potomac TRACON
Mon 08:49:54 PM 39.1667 -76.9833 322° Northwest 84 97 4,900  Level Potomac TRACON
Mon 08:50:54 PM 39.2000 -77.0000 339° North 89 102 4,900  Level Potomac TRACON
Mon 08:51:54 PM 39.2167 -77.0333 303° West 89 102 4,900  Level Potomac TRACON
Mon 08:52:54 PM 39.2333 -77.0500 322° Northwest 90 104 4,900 50 Level Potomac TRACON
Mon 08:53:54 PM 39.2500 -77.0667 322° Northwest 92 106 5,000 150 Climbing Potomac TRACON
Mon 08:54:54 PM 39.2667 -77.0833 322° Northwest 86 99 5,200 200 Climbing Potomac TRACON
Mon 08:55:54 PM 39.2833 -77.1167 303° West 83 96 5,400 100 Climbing Potomac TRACON
Mon 08:56:54 PM 39.2833 -77.1333 270° West 85 98 5,400 50 Level Potomac TRACON
Mon 08:57:54 PM 39.3000 -77.1500 322° Northwest 86 99 5,500 50 Climbing Potomac TRACON
Mon 08:58:54 PM 39.3167 -77.1833 303° West 86 99 5,500 50 Level Potomac TRACON
Mon 08:59:54 PM 39.3333 -77.2000 322° Northwest 92 106 5,600 200 Climbing Potomac TRACON
Mon 09:00:54 PM 39.3500 -77.2333 303° West 88 101 5,900 150 Climbing Potomac TRACON
Mon 09:01:54 PM 39.3500 -77.2667 270° West 89 102 5,900  Level Potomac TRACON
Mon 09:02:54 PM 39.3500 -77.3000 270° West 97 112 5,900  Level Potomac TRACON
Mon 09:03:54 PM 39.3500 -77.3333 270° West 101 116 5,900  Level Potomac TRACON
Mon 09:04:54 PM 39.3500 -77.3667 270° West 100 115 5,900  Level Potomac TRACON
Mon 09:05:54 PM 39.3500 -77.4000 270° West 101 116 5,900  Level Potomac TRACON
Mon 09:06:54 PM 39.3667 -77.4333 303° West 101 116 5,900  Level Potomac TRACON
Mon 09:08:55 PM 39.3631 -77.5056 266° West 109 125 5,900  Level Washington Center
Mon 09:09:55 PM 39.3644 -77.5406 273° West 109 125 5,900  Level Washington Center
Mon 09:10:53 PM 39.3661 -77.5728 274° West 103 119 5,900  Level Washington Center
Mon 09:11:53 PM 39.3697 -77.6078 278° West 103 119 5,900  Level Washington Center
Mon 09:12:54 PM 39.3711 -77.6428 273° West 103 119 5,900  Level Washington Center
Mon 09:13:54 PM 39.3728 -77.6775 274° West 103 119 5,900  Level Washington Center
Mon 09:14:55 PM 39.3742 -77.7097 273° West 103 119 5,900  Level Washington Center
Mon 09:15:53 PM 39.3756 -77.7422 273° West 103 119 5,900  Level Washington Center
Mon 09:16:56 PM 39.3792 -77.7744 278° West 103 119 5,900  Level Washington Center
Mon 09:17:53 PM 39.3786 -77.8094 269° West 103 119 5,900  Level Washington Center
Mon 09:18:54 PM 39.3822 -77.8417 278° West 103 119 5,900  Level Washington Center
Mon 09:19:55 PM 39.3983 -77.8664 310° West 98 113 5,900 50 Level Washington Center
Mon 09:20:53 PM 39.4167 -77.8858 321° Northwest 93 107 6,000  Climbing Washington Center
Mon 09:21:53 PM 39.4372 -77.9053 324° Northwest 88 101 5,900 -50 Descending Washington Center
Mon 09:22:53 PM 39.4578 -77.9272 321° Northwest 93 107 5,900  Level Washington Center
Mon 09:23:54 PM 39.4800 -77.9522 319° Northwest 93 107 5,900 50 Level Washington Center
Mon 09:24:54 PM 39.4986 -77.9717 321° Northwest 93 107 6,000  Climbing Washington Center
Mon 09:25:55 PM 39.5189 -77.9939 320° Northwest 93 107 5,900 -49 Descending Washington Center
Mon 09:26:56 PM 39.5392 -78.0161 320° Northwest 93 107 5,900  Level Washington Center
Mon 09:27:53 PM 39.5597 -78.0356 324° Northwest 93 107 5,900  Level Washington Center
Mon 09:28:54 PM 39.5803 -78.0550 324° Northwest 93 107 5,900  Level Washington Center
Mon 09:29:56 PM 39.6028 -78.0775 322° Northwest 93 107 5,900  Level Washington Center
Mon 09:30:53 PM 39.6208 -78.0997 317° Northwest 93 107 5,900  Level Washington Center
Mon 09:31:53 PM 39.6414 -78.1192 324° Northwest 93 107 5,900  Level Washington Center
Mon 09:32:53 PM 39.6597 -78.1414 317° Northwest 93 107 5,900  Level Washington Center
Mon 09:33:54 PM 39.6822 -78.1611 326° Northwest 93 107 5,900  Level Washington Center
Mon 09:34:55 PM 39.7006 -78.1833 317° Northwest 93 107 5,900 49 Level Washington Center
Mon 09:35:56 PM 39.7208 -78.2031 323° Northwest 93 107 6,000 43 Climbing Washington Center
Mon 09:37:13 PM 39.7533 -78.2392 320° Northwest 97 112 6,000  Level Cleveland Center
Mon 09:38:13 PM 39.7703 -78.2603 316° Northwest 87 100 6,000  Level Cleveland Center
Mon 09:39:14 PM 39.7917 -78.2783 327° Northwest 88 101 6,000  Level Cleveland Center
Mon 09:40:15 PM 39.8108 -78.3022 316° Northwest 95 109 6,000  Level Cleveland Center
Mon 09:41:15 PM 39.8300 -78.3203 324° Northwest 83 96 6,000  Level Cleveland Center
Mon 09:42:16 PM 39.8469 -78.3414 316° Northwest 87 100 6,000  Level Cleveland Center
Mon 09:43:16 PM 39.8703 -78.3622 326° Northwest 95 109 6,000  Level Cleveland Center
Mon 09:44:17 PM 39.8853 -78.3808 316° Northwest 81 93 6,000  Level Cleveland Center
Mon 09:45:18 PM 39.9067 -78.4044 320° Northwest 85 98 6,000  Level Cleveland Center
Mon 09:46:18 PM 39.9278 -78.4228 326° Northwest 94 108 6,000  Level Cleveland Center
Mon 09:47:19 PM 39.9428 -78.4411 317° Northwest 80 92 6,000  Level Cleveland Center
Mon 09:48:19 PM 39.9578 -78.4597 316° Northwest 73 84 6,000 50 Level Cleveland Center
Mon 09:49:20 PM 39.9769 -78.4781 324° Northwest 86 99 6,100  Climbing Cleveland Center
Mon 09:50:21 PM 39.9981 -78.4992 323° Northwest 88 101 6,000 -50 Descending Cleveland Center
Mon 09:51:21 PM 40.0150 -78.5175 320° Northwest 78 90 6,000  Level Cleveland Center
Mon 09:52:22 PM 40.0322 -78.5358 321° Northwest 81 93 6,000  Level Cleveland Center
Mon 09:53:22 PM 40.0511 -78.5569 319° Northwest 82 94 6,000  Level Cleveland Center
Mon 09:54:23 PM 40.0661 -78.5703 326° Northwest 75 86 6,000 49 Level Cleveland Center
Mon 09:55:24 PM 40.0831 -78.5886 320° Northwest 82 94 6,100  Climbing Cleveland Center
Mon 09:56:24 PM 40.1022 -78.6072 323° Northwest 86 99 6,000 -50 Descending Cleveland Center
Mon 09:57:25 PM 40.1192 -78.6283 316° Northwest 71 82 6,000  Level Cleveland Center
Mon 09:58:25 PM 40.1342 -78.6469 317° Northwest 77 89 6,000  Level Cleveland Center
Mon 09:59:26 PM 40.1553 -78.6681 323° Northwest 93 107 6,000  Level Cleveland Center
Mon 10:01:27 PM 40.1850 -78.6969 323° Northwest 53 61 6,000  Level Cleveland Center
Mon 10:02:28 PM 40.1978 -78.7131 316° Northwest 70 81 6,000  Level Cleveland Center
Mon 10:03:29 PM 40.2147 -78.7317 320° Northwest 83 96 6,000  Level Cleveland Center
Mon 10:04:29 PM 40.2317 -78.7500 320° Northwest 76 87 6,000  Level Cleveland Center
Mon 10:05:30 PM 40.2467 -78.7661 321° Northwest 71 82 6,000  Level Cleveland Center
Mon 10:06:30 PM 40.2656 -78.7872 320° Northwest 82 94 6,000  Level Cleveland Center
Mon 10:07:31 PM 40.2847 -78.8058 323° Northwest 85 98 6,000  Level Cleveland Center
Mon 10:08:32 PM 40.3017 -78.8244 320° Northwest 80 92 6,000  Level Cleveland Center
Mon 10:09:32 PM 40.3144 -78.8378 321° Northwest 80 92 6,000  Level Cleveland Center
Mon 10:10:33 PM 40.3314 -78.8617 313° West 69 79 6,000  Level Cleveland Center
Mon 10:11:33 PM 40.3381 -78.8917 286° West 77 89 6,000  Level Cleveland Center
Mon 10:12:34 PM 40.3447 -78.9186 288° West 85 98 6,000  Level Cleveland Center
Mon 10:13:35 PM 40.3536 -78.9511 290° West 94 108 6,000  Level Cleveland Center
Mon 10:14:35 PM 40.3581 -78.9783 282° West 84 97 6,000 50 Level Cleveland Center
Mon 10:15:36 PM 40.3647 -79.0025 290° West 71 82 6,100  Climbing Cleveland Center
Mon 10:16:36 PM 40.3736 -79.0350 290° West 82 94 6,000 -50 Descending Cleveland Center
Mon 10:17:37 PM 40.3822 -79.0622 293° West 90 104 6,000  Level Cleveland Center
Mon 10:18:44 PM 40.3911 -79.0947 290° West 84 97 6,000  Level Cleveland Center
Mon 10:19:44 PM 40.3978 -79.1244 286° West 83 96 6,000  Level Cleveland Center
Mon 10:20:45 PM 40.4064 -79.1544 291° West 88 101 6,000  Level Cleveland Center
Mon 10:21:46 PM 40.4150 -79.1842 291° West 87 100 6,000  Level Cleveland Center
Mon 10:22:46 PM 40.4239 -79.2167 290° West 87 100 6,000  Level Cleveland Center
Mon 10:23:47 PM 40.4325 -79.2467 291° West 88 101 6,000  Level Cleveland Center
Mon 10:24:47 PM 40.4392 -79.2792 285° West 88 101 6,000 50 Level Cleveland Center
Mon 10:25:48 PM 40.4478 -79.3064 293° West 89 102 6,100  Climbing Cleveland Center
Mon 10:26:49 PM 40.4544 -79.3389 285° West 90 104 6,000  Descending Cleveland Center
Mon 10:27:49 PM 40.4611 -79.3714 285° West 88 101 6,100 -2 Climbing Cleveland Center
Mon 10:29:00 PM 40.4814 -79.3976 315° West  Level FlightAware Approximate
Mon 10:36:00 PM 40.6011 -79.5529 315° West  Level FlightAware Approximate
Mon 10:37:00 PM 40.6181 -79.5751 315° West  Level FlightAware Approximate
Mon 10:38:00 PM 40.6352 -79.5974 315° West  Level FlightAware Approximate
Mon 10:39:00 PM 40.6546 -79.6249 306° West  Level FlightAware Approximate
Mon 10:40:00 PM 40.6688 -79.6504 306° West  Level FlightAware Approximate
Mon 10:41:00 PM 40.6830 -79.6759 306° West  Level FlightAware Approximate
Mon 10:42:00 PM 40.6973 -79.7014 306° West  Level FlightAware Approximate
Mon 10:43:00 PM 40.7115 -79.7270 306° West  Level FlightAware Approximate
Mon 10:44:00 PM 40.7257 -79.7525 306° West  Level FlightAware Approximate
Mon 10:45:00 PM 40.7399 -79.7781 306° West  Level FlightAware Approximate
Mon 10:46:00 PM 40.7541 -79.8036 306° West  Level FlightAware Approximate
Mon 10:47:00 PM 40.7682 -79.8292 306° West  Level FlightAware Approximate
Mon 10:48:00 PM 40.7824 -79.8548 306° West  Level FlightAware Approximate
Mon 10:49:00 PM 40.7966 -79.8804 306° West  Level FlightAware Approximate
Mon 10:50:00 PM 40.8108 -79.9060 306° West  Level FlightAware Approximate
Mon 10:51:00 PM 40.8250 -79.9316 306° West  Level FlightAware Approximate
Mon 10:52:00 PM 40.8392 -79.9572 306° West  Level FlightAware Approximate
Mon 10:53:00 PM 40.8535 -79.9827 306° West  Level FlightAware Approximate
Mon 10:54:00 PM 40.8677 -80.0083 306° West  Level FlightAware Approximate
Mon 10:55:00 PM 40.8820 -80.0339 306° West  Level FlightAware Approximate
Mon 10:56:00 PM 40.8962 -80.0594 306° West  Level FlightAware Approximate
Mon 10:57:00 PM 40.9104 -80.0851 306° West  Level FlightAware Approximate
Mon 10:58:00 PM 40.9246 -80.1107 306° West  Level FlightAware Approximate
Mon 10:59:00 PM 40.9388 -80.1363 306° West  Level FlightAware Approximate
Mon 11:00:00 PM 40.9530 -80.1619 306° West  Level FlightAware Approximate
Mon 11:01:00 PM 40.9672 -80.1876 306° West  Level FlightAware Approximate
Mon 11:02:00 PM 40.9814 -80.2132 306° West  Level FlightAware Approximate
Mon 11:03:00 PM 40.9957 -80.2388 306° West  Level FlightAware Approximate
Mon 11:04:00 PM 41.0100 -80.2644 306° West  Level FlightAware Approximate
Mon 11:05:00 PM 41.0242 -80.2900 306° West  Level FlightAware Approximate
Mon 11:06:00 PM 41.0385 -80.3156 306° West  Level FlightAware Approximate
Mon 11:07:00 PM 41.0527 -80.3413 306° West  Level FlightAware Approximate
Mon 11:08:00 PM 41.0670 -80.3669 306° West  Level FlightAware Approximate
Mon 11:09:00 PM 41.0812 -80.3925 306° West  Level FlightAware Approximate
Mon 11:10:00 PM 41.0955 -80.4182 306° West  Level FlightAware Approximate
Mon 11:11:00 PM 41.1097 -80.4439 306° West  Level FlightAware Approximate
Mon 11:12:00 PM 41.1239 -80.4696 306° West  Level FlightAware Approximate
Mon 11:13:00 PM 41.1382 -80.4952 306° West  Level FlightAware Approximate
Mon 11:14:00 PM 41.1523 -80.5210 305° West  Level FlightAware Approximate
Mon 11:15:00 PM 41.1662 -80.5470 305° West  Level FlightAware Approximate
Mon 11:16:00 PM 41.1801 -80.5730 305° West  Level FlightAware Approximate
Mon 11:17:00 PM 41.1941 -80.5990 305° West  Level FlightAware Approximate
Mon 11:18:00 PM 41.2080 -80.6250 305° West  Level FlightAware Approximate
Mon 11:19:00 PM 41.2219 -80.6510 305° West  Level FlightAware Approximate
Mon 11:20:00 PM 41.2357 -80.6771 305° West  Level FlightAware Approximate
Mon 11:21:00 PM 41.2496 -80.7032 305° West  Level FlightAware Approximate
Mon 11:22:00 PM 41.2635 -80.7292 305° West  Level FlightAware Approximate
Mon 11:23:00 PM 41.2774 -80.7553 305° West  Level FlightAware Approximate
Mon 11:24:00 PM 41.2912 -80.7814 305° West  Level FlightAware Approximate
Mon 11:25:00 PM 41.3051 -80.8075 305° West  Level FlightAware Approximate
Mon 11:26:00 PM 41.3190 -80.8336 305° West  Level FlightAware Approximate
Mon 11:27:00 PM 41.3328 -80.8597 305° West  Level FlightAware Approximate
Mon 11:28:00 PM 41.3467 -80.8859 305° West  Level FlightAware Approximate
Mon 11:28:52 PM 41.3614 -80.8653 305° West 91 105 5,900  Level Cleveland Center
Mon 11:29:00 PM 41.3605 -80.9120 305° West  Level FlightAware Approximate
Mon 11:29:53 PM 41.3800 -80.8847 322° Northwest 90 104 5,900  Level Cleveland Center
Mon 11:30:00 PM 41.3743 -80.9382 305° West  Level FlightAware Approximate
Mon 11:30:54 PM 41.3989 -80.9069 319° Northwest 89 102 5,900  Level Cleveland Center
Mon 11:31:00 PM 41.3882 -80.9643 305° West  Level FlightAware Approximate
Mon 11:31:55 PM 41.4194 -80.9236 329° Northwest 89 102 5,900  Level Cleveland Center
Mon 11:32:00 PM 41.4020 -80.9905 305° West  Level FlightAware Approximate
Mon 11:32:55 PM 41.4425 -80.9489 321° Northwest 95 109 5,900  Level Cleveland Center
Mon 11:33:00 PM 41.4158 -81.0167 305° West  Level FlightAware Approximate
Mon 11:33:55 PM 41.4631 -80.9683 325° Northwest 94 108 5,900  Level Cleveland Center
Mon 11:34:00 PM 41.4296 -81.0429 305° West  Level FlightAware Approximate
Mon 11:34:56 PM 41.4819 -80.9906 319° Northwest 93 107 5,900  Level Cleveland Center
Mon 11:35:51 PM 41.4986 -81.0100 319° Northwest 92 106 5,900  Level Cleveland Center
Mon 11:36:51 PM 41.5192 -81.0297 324° Northwest 90 104 5,900  Level Cleveland Center
Mon 11:37:52 PM 41.5381 -81.0519 319° Northwest 93 107 5,900 -50 Level Cleveland Center
Mon 11:38:52 PM 41.5567 -81.0742 318° Northwest 91 105 5,800 -490 Descending Cleveland Center
Mon 11:39:30 PM 41.5711 -81.0856 329° Northwest 96 110 5,100 -980 Descending Cleveland Center
Mon 11:40:30 PM 41.5897 -81.1078 318° Northwest 96 110 4,200 -600 Descending Cleveland Center
Mon 11:41:30 PM 41.6064 -81.1275 319° Northwest 76 87 3,900 -150 Descending Cleveland Center
Mon 11:42:30 PM 41.6250 -81.1414 331° Northwest 76 87 3,900  Level Cleveland Center
Mon 11:43:01 PM 41.6333 -81.1500 322° Northwest 81 93 3,900  Level Cleveland Center
Mon 11:44:01 PM 41.6519 -81.1694 322° Northwest 83 96 3,900  Level Cleveland Center
Mon 11:45:02 PM 41.6708 -81.1892 322° Northwest 86 99 3,900  Level Cleveland Center
Mon 11:46:09 PM 41.6894 -81.2089 322° Northwest 84 97 3,900  Level Cleveland Center
Mon 11:47:09 PM 41.7081 -81.2283 322° Northwest 85 98 3,900  Level Cleveland Center
Mon 11:48:16 PM 41.7286 -81.2508 321° Northwest 87 100 3,900  Level Cleveland Center
Mon 11:49:23 PM 41.7494 -81.2733 321° Northwest 88 101 3,900  Level Cleveland Center
Mon 11:50:23 PM 41.7700 -81.2958 321° Northwest 89 102 3,900  Level Cleveland Center
Mon 11:51:30 PM 41.7889 -81.3156 322° Northwest 86 99 3,900 47 Level Cleveland Center
Mon 11:52:30 PM 41.8094 -81.3353 324° Northwest 81 93 4,000  Climbing Cleveland Center
Mon 11:53:30 PM 41.8239 -81.3578 311° West 81 93 3,900 -50 Descending Cleveland Center
Mon 11:54:30 PM 41.8425 -81.3747 326° Northwest 81 93 3,900  Level Cleveland Center
Mon 11:55:30 PM 41.8633 -81.3944 325° Northwest 81 93 3,900  Level Cleveland Center
Mon 11:56:30 PM 41.8819 -81.4142 322° Northwest 81 93 3,900  Level Cleveland Center
Mon 11:57:30 PM 41.9025 -81.4342 324° Northwest 81 93 3,900  Level Cleveland Center
Mon 11:58:30 PM 41.9192 -81.4567 315° West 81 93 3,900 50 Level Cleveland Center
Mon 11:59:30 PM 41.9378 -81.4764 322° Northwest 81 93 4,000  Climbing Cleveland Center
Tue 12:00:30 AM 41.9564 -81.4961 322° Northwest 82 94 3,900 -50 Descending Cleveland Center
Tue 12:01:30 AM 41.9750 -81.5161 321° Northwest 82 94 3,900  Level Cleveland Center
Tue 12:02:30 AM 41.9936 -81.5331 326° Northwest 82 94 3,900  Level Cleveland Center
Tue 12:03:30 AM 42.0100 -81.5500 322° Northwest 82 94 3,900  Level Cleveland Center
Tue 12:04:30 AM 42.0286 -81.5700 321° Northwest 82 94 3,900  Level Cleveland Center
Tue 12:05:30 AM 42.0453 -81.5897 319° Northwest 77 89 3,900  Level Cleveland Center
Tue 12:06:30 AM 42.0639 -81.6067 326° Northwest 82 94 3,900  Level Cleveland Center
Tue 12:07:30 AM 42.0822 -81.6294 317° Northwest 82 94 3,900  Level Cleveland Center
Tue 12:08:30 AM 42.1008 -81.6494 321° Northwest 82 94 3,900  Level Cleveland Center
Tue 12:09:30 AM 42.1217 -81.6722 321° Northwest 82 94 3,900  Level Cleveland Center
Tue 12:10:30 AM 42.1422 -81.6919 325° Northwest 82 94 3,900  Level Cleveland Center
Tue 12:11:30 AM 42.1628 -81.7178 317° Northwest 87 100 3,900  Level Cleveland Center
Tue 12:12:30 AM 42.1814 -81.7375 322° Northwest 87 100 3,900  Level Cleveland Center
Tue 12:13:30 AM 42.2042 -81.7606 323° Northwest 87 100 3,900  Level Cleveland Center
Tue 12:14:30 AM 42.2247 -81.7806 324° Northwest 87 100 3,900  Level Cleveland Center
Tue 12:15:30 AM 42.2453 -81.8061 317° Northwest 92 106 3,900 50 Level Cleveland Center
Tue 12:16:30 AM 42.2658 -81.8261 324° Northwest 92 106 4,000  Climbing Cleveland Center
Tue 12:17:30 AM 42.2886 -81.8461 327° Northwest 92 106 3,900 -50 Descending Cleveland Center
Tue 12:18:30 AM 42.3069 -81.8719 314° West 92 106 3,900  Level Cleveland Center
Tue 12:19:30 AM 42.3278 -81.8947 321° Northwest 92 106 3,900 50 Level Cleveland Center
Tue 12:20:30 AM 42.3483 -81.9147 324° Northwest 97 112 4,000  Climbing Cleveland Center
Tue 12:21:30 AM 42.3689 -81.9378 320° Northwest 97 112 3,900 -50 Descending Cleveland Center
Tue 12:22:30 AM 42.3872 -81.9606 317° Northwest 92 106 3,900  Level Cleveland Center
Tue 12:23:30 AM 42.4078 -81.9836 320° Northwest 92 106 3,900 50 Level Cleveland Center
Tue 12:24:30 AM 42.4306 -82.0067 323° Northwest 92 106 4,000 50 Climbing Cleveland Center
Tue 12:25:30 AM 42.4489 -82.0294 317° Northwest 92 106 4,000  Level Cleveland Center
Tue 12:26:30 AM 42.4717 -82.0497 327° Northwest 97 112 4,000  Level Cleveland Center
Tue 12:27:30 AM 42.4942 -82.0756 320° Northwest 97 112 4,000 -50 Level Cleveland Center
Tue 12:28:30 AM 42.5147 -82.1014 317° Northwest 102 117 3,900 -50 Descending Cleveland Center
Tue 12:29:30 AM 42.5375 -82.1189 330° Northwest 102 117 3,900 50 Level Cleveland Center
Tue 12:30:30 AM 42.5600 -82.1506 314° West 108 124 4,000  Climbing Cleveland Center
Tue 12:31:30 AM 42.5850 -82.1594 345° North 103 119 3,900  Descending Cleveland Center
Tue 12:32:30 AM 42.6033 -82.1853 314° West 98 113 4,000 50 Climbing Cleveland Center
Tue 12:33:30 AM 42.6217 -82.2056 321° Northwest 98 113 4,000  Level Cleveland Center

Login

Don't have an account? Register now (free) for customized features, flight alerts, and more!